sensor_id;sensor_type;location;lat;lon;timestamp;P1;durP1;ratioP1;P2;durP2;ratioP2
24439;SDS011;12618;54.386;18.394;2023-01-13T00:02:09;13.10;;;8.00;;
24439;SDS011;12618;54.386;18.394;2023-01-13T00:04:41;11.70;;;8.20;;
24439;SDS011;12618;54.386;18.394;2023-01-13T00:07:13;10.00;;;7.50;;
24439;SDS011;12618;54.386;18.394;2023-01-13T00:09:45;11.40;;;7.90;;
24439;SDS011;12618;54.386;18.394;2023-01-13T00:12:16;10.50;;;7.70;;
24439;SDS011;12618;54.386;18.394;2023-01-13T00:14:48;13.50;;;8.70;;
24439;SDS011;12618;54.386;18.394;2023-01-13T00:17:21;12.10;;;8.00;;
24439;SDS011;12618;54.386;18.394;2023-01-13T00:19:53;11.60;;;8.30;;
24439;SDS011;12618;54.386;18.394;2023-01-13T00:22:25;8.50;;;7.30;;
24439;SDS011;12618;54.386;18.394;2023-01-13T00:24:56;9.70;;;7.20;;
24439;SDS011;12618;54.386;18.394;2023-01-13T00:27:31;12.90;;;8.40;;
24439;SDS011;12618;54.386;18.394;2023-01-13T00:30:04;12.00;;;8.70;;
24439;SDS011;12618;54.386;18.394;2023-01-13T00:32:37;10.90;;;8.10;;
24439;SDS011;12618;54.386;18.394;2023-01-13T00:35:09;11.00;;;8.70;;
24439;SDS011;12618;54.386;18.394;2023-01-13T00:37:40;10.80;;;8.40;;
24439;SDS011;12618;54.386;18.394;2023-01-13T00:40:12;11.20;;;8.50;;
24439;SDS011;12618;54.386;18.394;2023-01-13T00:42:44;10.20;;;7.70;;
24439;SDS011;12618;54.386;18.394;2023-01-13T00:45:34;11.30;;;9.30;;
24439;SDS011;12618;54.386;18.394;2023-01-13T00:48:09;9.60;;;7.60;;
24439;SDS011;12618;54.386;18.394;2023-01-13T00:50:41;11.50;;;8.30;;
24439;SDS011;12618;54.386;18.394;2023-01-13T00:53:13;10.70;;;8.30;;
24439;SDS011;12618;54.386;18.394;2023-01-13T00:55:45;11.40;;;9.20;;
24439;SDS011;12618;54.386;18.394;2023-01-13T00:58:17;13.70;;;9.10;;
24439;SDS011;12618;54.386;18.394;2023-01-13T01:00:48;10.00;;;8.50;;
24439;SDS011;12618;54.386;18.394;2023-01-13T01:03:23;9.30;;;7.90;;
24439;SDS011;12618;54.386;18.394;2023-01-13T01:05:55;10.00;;;7.80;;
24439;SDS011;12618;54.386;18.394;2023-01-13T01:08:27;11.80;;;8.30;;
24439;SDS011;12618;54.386;18.394;2023-01-13T01:11:02;11.90;;;8.80;;
24439;SDS011;12618;54.386;18.394;2023-01-13T01:13:39;13.20;;;8.60;;
24439;SDS011;12618;54.386;18.394;2023-01-13T01:16:13;9.80;;;8.60;;
24439;SDS011;12618;54.386;18.394;2023-01-13T01:18:47;11.80;;;9.00;;
24439;SDS011;12618;54.386;18.394;2023-01-13T01:23:53;13.00;;;10.40;;
24439;SDS011;12618;54.386;18.394;2023-01-13T01:26:26;12.80;;;9.90;;
24439;SDS011;12618;54.386;18.394;2023-01-13T01:28:59;11.40;;;9.00;;
24439;SDS011;12618;54.386;18.394;2023-01-13T01:31:32;11.20;;;9.40;;
24439;SDS011;12618;54.386;18.394;2023-01-13T01:34:04;12.90;;;9.00;;
24439;SDS011;12618;54.386;18.394;2023-01-13T01:36:36;10.60;;;8.20;;
24439;SDS011;12618;54.386;18.394;2023-01-13T01:39:09;15.00;;;9.20;;
24439;SDS011;12618;54.386;18.394;2023-01-13T01:41:41;12.40;;;9.90;;
24439;SDS011;12618;54.386;18.394;2023-01-13T01:47:30;11.50;;;9.40;;
24439;SDS011;12618;54.386;18.394;2023-01-13T01:50:03;14.60;;;10.00;;
24439;SDS011;12618;54.386;18.394;2023-01-13T01:52:36;12.30;;;9.00;;
24439;SDS011;12618;54.386;18.394;2023-01-13T01:55:17;12.90;;;9.30;;
24439;SDS011;12618;54.386;18.394;2023-01-13T02:00:26;10.20;;;8.40;;
24439;SDS011;12618;54.386;18.394;2023-01-13T02:02:59;12.40;;;8.70;;
24439;SDS011;12618;54.386;18.394;2023-01-13T02:05:31;12.20;;;9.00;;
24439;SDS011;12618;54.386;18.394;2023-01-13T02:08:04;12.10;;;9.30;;
24439;SDS011;12618;54.386;18.394;2023-01-13T02:10:40;9.30;;;8.20;;
24439;SDS011;12618;54.386;18.394;2023-01-13T02:13:15;10.60;;;7.90;;
24439;SDS011;12618;54.386;18.394;2023-01-13T02:15:58;11.50;;;8.60;;
24439;SDS011;12618;54.386;18.394;2023-01-13T02:24:21;11.10;;;7.90;;
24439;SDS011;12618;54.386;18.394;2023-01-13T02:30:36;9.50;;;7.20;;
24439;SDS011;12618;54.386;18.394;2023-01-13T02:33:32;9.30;;;6.90;;
24439;SDS011;12618;54.386;18.394;2023-01-13T02:36:24;9.00;;;7.10;;
24439;SDS011;12618;54.386;18.394;2023-01-13T02:39:09;8.30;;;6.70;;
24439;SDS011;12618;54.386;18.394;2023-01-13T02:44:42;9.90;;;6.90;;
24439;SDS011;12618;54.386;18.394;2023-01-13T02:47:22;10.00;;;6.90;;
24439;SDS011;12618;54.386;18.394;2023-01-13T02:52:41;9.30;;;7.10;;
24439;SDS011;12618;54.386;18.394;2023-01-13T02:55:33;7.90;;;6.90;;
24439;SDS011;12618;54.386;18.394;2023-01-13T02:58:09;8.90;;;7.20;;
24439;SDS011;12618;54.386;18.394;2023-01-13T03:00:49;8.20;;;6.80;;
24439;SDS011;12618;54.386;18.394;2023-01-13T03:03:21;10.10;;;6.70;;
24439;SDS011;12618;54.386;18.394;2023-01-13T03:05:55;7.70;;;6.70;;
24439;SDS011;12618;54.386;18.394;2023-01-13T03:08:48;9.00;;;6.00;;
24439;SDS011;12618;54.386;18.394;2023-01-13T03:11:25;8.80;;;7.00;;
24439;SDS011;12618;54.386;18.394;2023-01-13T03:14:10;9.30;;;7.40;;
24439;SDS011;12618;54.386;18.394;2023-01-13T03:20:05;6.70;;;5.40;;
24439;SDS011;12618;54.386;18.394;2023-01-13T03:22:43;6.20;;;5.60;;
24439;SDS011;12618;54.386;18.394;2023-01-13T03:25:27;7.20;;;6.00;;
24439;SDS011;12618;54.386;18.394;2023-01-13T03:28:03;6.10;;;5.50;;
24439;SDS011;12618;54.386;18.394;2023-01-13T03:30:42;6.40;;;5.30;;
24439;SDS011;12618;54.386;18.394;2023-01-13T03:33:22;7.10;;;5.60;;
24439;SDS011;12618;54.386;18.394;2023-01-13T03:36:07;6.00;;;5.10;;
24439;SDS011;12618;54.386;18.394;2023-01-13T03:38:49;5.90;;;4.90;;
24439;SDS011;12618;54.386;18.394;2023-01-13T03:41:26;5.60;;;5.00;;
24439;SDS011;12618;54.386;18.394;2023-01-13T03:44:17;6.30;;;5.50;;
24439;SDS011;12618;54.386;18.394;2023-01-13T03:50:27;6.80;;;5.00;;
24439;SDS011;12618;54.386;18.394;2023-01-13T03:53:12;6.20;;;4.70;;
24439;SDS011;12618;54.386;18.394;2023-01-13T03:55:54;5.20;;;4.30;;
24439;SDS011;12618;54.386;18.394;2023-01-13T03:58:32;5.20;;;4.60;;
24439;SDS011;12618;54.386;18.394;2023-01-13T04:01:11;5.40;;;4.70;;
24439;SDS011;12618;54.386;18.394;2023-01-13T04:04:57;5.10;;;4.60;;
24439;SDS011;12618;54.386;18.394;2023-01-13T04:10:59;5.20;;;4.30;;
24439;SDS011;12618;54.386;18.394;2023-01-13T04:13:41;6.50;;;4.60;;
24439;SDS011;12618;54.386;18.394;2023-01-13T04:16:26;4.60;;;4.10;;
24439;SDS011;12618;54.386;18.394;2023-01-13T04:18:58;4.60;;;4.10;;
24439;SDS011;12618;54.386;18.394;2023-01-13T04:22:10;4.60;;;4.10;;
24439;SDS011;12618;54.386;18.394;2023-01-13T04:25:20;5.70;;;5.00;;
24439;SDS011;12618;54.386;18.394;2023-01-13T04:28:00;6.30;;;4.80;;
24439;SDS011;12618;54.386;18.394;2023-01-13T04:30:43;5.10;;;3.80;;
24439;SDS011;12618;54.386;18.394;2023-01-13T04:33:21;5.00;;;4.50;;
24439;SDS011;12618;54.386;18.394;2023-01-13T04:36:02;4.90;;;4.40;;
24439;SDS011;12618;54.386;18.394;2023-01-13T04:38:36;5.70;;;4.40;;
24439;SDS011;12618;54.386;18.394;2023-01-13T04:41:08;6.50;;;4.50;;
24439;SDS011;12618;54.386;18.394;2023-01-13T04:43:45;5.40;;;4.40;;
24439;SDS011;12618;54.386;18.394;2023-01-13T04:46:17;7.10;;;5.20;;
24439;SDS011;12618;54.386;18.394;2023-01-13T04:48:49;5.60;;;4.30;;
24439;SDS011;12618;54.386;18.394;2023-01-13T04:51:42;5.70;;;4.50;;
24439;SDS011;12618;54.386;18.394;2023-01-13T04:54:53;4.40;;;4.00;;
24439;SDS011;12618;54.386;18.394;2023-01-13T04:57:45;4.60;;;4.10;;
24439;SDS011;12618;54.386;18.394;2023-01-13T05:00:22;4.90;;;4.00;;
24439;SDS011;12618;54.386;18.394;2023-01-13T05:03:19;4.30;;;3.50;;
24439;SDS011;12618;54.386;18.394;2023-01-13T05:07:12;4.60;;;3.80;;
24439;SDS011;12618;54.386;18.394;2023-01-13T05:10:17;5.60;;;4.10;;
24439;SDS011;12618;54.386;18.394;2023-01-13T05:12:49;4.50;;;4.00;;
24439;SDS011;12618;54.386;18.394;2023-01-13T05:15:40;5.00;;;4.00;;
24439;SDS011;12618;54.386;18.394;2023-01-13T05:18:32;4.50;;;3.90;;
24439;SDS011;12618;54.386;18.394;2023-01-13T05:21:04;4.70;;;4.30;;
24439;SDS011;12618;54.386;18.394;2023-01-13T05:23:55;5.70;;;4.50;;
24439;SDS011;12618;54.386;18.394;2023-01-13T05:26:46;4.60;;;3.80;;
24439;SDS011;12618;54.386;18.394;2023-01-13T05:29:17;4.10;;;3.70;;
24439;SDS011;12618;54.386;18.394;2023-01-13T05:31:49;8.20;;;4.80;;
24439;SDS011;12618;54.386;18.394;2023-01-13T05:34:21;6.30;;;4.70;;
24439;SDS011;12618;54.386;18.394;2023-01-13T05:36:52;6.30;;;4.50;;
24439;SDS011;12618;54.386;18.394;2023-01-13T05:39:25;7.80;;;4.30;;
24439;SDS011;12618;54.386;18.394;2023-01-13T05:44:48;4.10;;;3.70;;
24439;SDS011;12618;54.386;18.394;2023-01-13T05:47:20;4.00;;;3.40;;
24439;SDS011;12618;54.386;18.394;2023-01-13T05:49:52;4.00;;;3.60;;
24439;SDS011;12618;54.386;18.394;2023-01-13T05:52:23;4.00;;;3.60;;
24439;SDS011;12618;54.386;18.394;2023-01-13T05:54:57;5.10;;;4.20;;
24439;SDS011;12618;54.386;18.394;2023-01-13T05:57:29;5.30;;;4.10;;
24439;SDS011;12618;54.386;18.394;2023-01-13T06:00:01;6.70;;;4.90;;
24439;SDS011;12618;54.386;18.394;2023-01-13T06:02:34;4.70;;;4.00;;
24439;SDS011;12618;54.386;18.394;2023-01-13T06:05:06;4.60;;;3.50;;
24439;SDS011;12618;54.386;18.394;2023-01-13T06:07:38;5.50;;;4.00;;
24439;SDS011;12618;54.386;18.394;2023-01-13T06:10:13;4.30;;;3.80;;
24439;SDS011;12618;54.386;18.394;2023-01-13T06:12:44;4.20;;;3.70;;
24439;SDS011;12618;54.386;18.394;2023-01-13T06:15:16;3.90;;;3.30;;
24439;SDS011;12618;54.386;18.394;2023-01-13T06:17:49;4.90;;;4.30;;
24439;SDS011;12618;54.386;18.394;2023-01-13T06:20:21;6.50;;;4.80;;
24439;SDS011;12618;54.386;18.394;2023-01-13T06:22:53;6.40;;;5.40;;
24439;SDS011;12618;54.386;18.394;2023-01-13T06:27:57;6.60;;;5.90;;
24439;SDS011;12618;54.386;18.394;2023-01-13T06:30:33;5.60;;;5.10;;
24439;SDS011;12618;54.386;18.394;2023-01-13T06:33:10;6.30;;;5.00;;
24439;SDS011;12618;54.386;18.394;2023-01-13T06:35:48;6.60;;;5.90;;
24439;SDS011;12618;54.386;18.394;2023-01-13T06:38:24;6.60;;;5.80;;
24439;SDS011;12618;54.386;18.394;2023-01-13T06:40:58;10.20;;;8.70;;
24439;SDS011;12618;54.386;18.394;2023-01-13T06:43:29;10.80;;;9.80;;
24439;SDS011;12618;54.386;18.394;2023-01-13T06:46:01;11.70;;;10.50;;
24439;SDS011;12618;54.386;18.394;2023-01-13T06:48:35;12.00;;;10.40;;
24439;SDS011;12618;54.386;18.394;2023-01-13T06:51:07;23.10;;;18.00;;
24439;SDS011;12618;54.386;18.394;2023-01-13T06:53:38;16.40;;;11.70;;
24439;SDS011;12618;54.386;18.394;2023-01-13T06:56:12;14.70;;;11.60;;
24439;SDS011;12618;54.386;18.394;2023-01-13T06:58:44;15.30;;;11.40;;
24439;SDS011;12618;54.386;18.394;2023-01-13T07:01:16;7.40;;;6.40;;
24439;SDS011;12618;54.386;18.394;2023-01-13T07:03:48;8.10;;;6.80;;
24439;SDS011;12618;54.386;18.394;2023-01-13T07:06:20;10.50;;;8.20;;
24439;SDS011;12618;54.386;18.394;2023-01-13T07:08:52;11.30;;;8.50;;
24439;SDS011;12618;54.386;18.394;2023-01-13T07:11:25;13.50;;;10.30;;
24439;SDS011;12618;54.386;18.394;2023-01-13T07:14:25;11.10;;;8.30;;
24439;SDS011;12618;54.386;18.394;2023-01-13T07:17:18;10.40;;;6.90;;
24439;SDS011;12618;54.386;18.394;2023-01-13T07:20:03;10.80;;;7.90;;
24439;SDS011;12618;54.386;18.394;2023-01-13T07:22:36;8.50;;;7.30;;
24439;SDS011;12618;54.386;18.394;2023-01-13T07:25:09;9.80;;;7.90;;
24439;SDS011;12618;54.386;18.394;2023-01-13T07:27:41;8.10;;;6.60;;
24439;SDS011;12618;54.386;18.394;2023-01-13T07:30:14;5.80;;;4.40;;
24439;SDS011;12618;54.386;18.394;2023-01-13T07:32:47;6.10;;;4.60;;
24439;SDS011;12618;54.386;18.394;2023-01-13T07:35:19;5.40;;;4.90;;
24439;SDS011;12618;54.386;18.394;2023-01-13T07:37:53;6.10;;;5.10;;
24439;SDS011;12618;54.386;18.394;2023-01-13T07:40:30;6.20;;;5.30;;
24439;SDS011;12618;54.386;18.394;2023-01-13T07:43:03;8.20;;;6.00;;
24439;SDS011;12618;54.386;18.394;2023-01-13T07:45:55;7.50;;;6.40;;
24439;SDS011;12618;54.386;18.394;2023-01-13T07:48:29;8.20;;;6.70;;
24439;SDS011;12618;54.386;18.394;2023-01-13T07:51:06;8.20;;;6.50;;
24439;SDS011;12618;54.386;18.394;2023-01-13T07:53:40;9.10;;;7.70;;
24439;SDS011;12618;54.386;18.394;2023-01-13T07:56:12;11.00;;;8.00;;
24439;SDS011;12618;54.386;18.394;2023-01-13T07:58:44;11.00;;;8.30;;
24439;SDS011;12618;54.386;18.394;2023-01-13T08:01:26;9.00;;;7.10;;
24439;SDS011;12618;54.386;18.394;2023-01-13T08:03:59;10.50;;;7.80;;
24439;SDS011;12618;54.386;18.394;2023-01-13T08:06:32;12.20;;;9.50;;
24439;SDS011;12618;54.386;18.394;2023-01-13T08:09:04;15.50;;;10.80;;
24439;SDS011;12618;54.386;18.394;2023-01-13T08:11:36;13.10;;;10.80;;
24439;SDS011;12618;54.386;18.394;2023-01-13T08:14:08;12.00;;;8.60;;
24439;SDS011;12618;54.386;18.394;2023-01-13T08:16:40;11.60;;;8.90;;
24439;SDS011;12618;54.386;18.394;2023-01-13T08:19:12;10.70;;;8.40;;
24439;SDS011;12618;54.386;18.394;2023-01-13T08:21:43;12.80;;;9.00;;
24439;SDS011;12618;54.386;18.394;2023-01-13T08:24:15;10.00;;;8.00;;
24439;SDS011;12618;54.386;18.394;2023-01-13T08:26:49;7.90;;;7.10;;
24439;SDS011;12618;54.386;18.394;2023-01-13T08:29:20;7.80;;;6.70;;
24439;SDS011;12618;54.386;18.394;2023-01-13T08:31:52;7.20;;;6.50;;
24439;SDS011;12618;54.386;18.394;2023-01-13T08:34:25;7.00;;;6.30;;
24439;SDS011;12618;54.386;18.394;2023-01-13T08:36:57;8.10;;;6.90;;
24439;SDS011;12618;54.386;18.394;2023-01-13T08:39:45;12.60;;;8.80;;
24439;SDS011;12618;54.386;18.394;2023-01-13T08:42:17;13.70;;;9.10;;
24439;SDS011;12618;54.386;18.394;2023-01-13T08:44:49;10.90;;;7.90;;
24439;SDS011;12618;54.386;18.394;2023-01-13T08:47:23;9.80;;;8.10;;
24439;SDS011;12618;54.386;18.394;2023-01-13T08:49:58;9.20;;;7.60;;
24439;SDS011;12618;54.386;18.394;2023-01-13T08:52:30;9.60;;;8.00;;
24439;SDS011;12618;54.386;18.394;2023-01-13T08:55:02;10.50;;;7.90;;
24439;SDS011;12618;54.386;18.394;2023-01-13T08:57:35;8.00;;;7.20;;
24439;SDS011;12618;54.386;18.394;2023-01-13T09:00:08;10.10;;;8.10;;
24439;SDS011;12618;54.386;18.394;2023-01-13T09:02:41;8.40;;;7.50;;
24439;SDS011;12618;54.386;18.394;2023-01-13T09:05:13;8.70;;;7.70;;
24439;SDS011;12618;54.386;18.394;2023-01-13T09:07:47;9.90;;;7.90;;
24439;SDS011;12618;54.386;18.394;2023-01-13T09:10:22;8.00;;;7.00;;
24439;SDS011;12618;54.386;18.394;2023-01-13T09:12:53;8.30;;;7.30;;
24439;SDS011;12618;54.386;18.394;2023-01-13T09:15:44;8.80;;;7.20;;
24439;SDS011;12618;54.386;18.394;2023-01-13T09:18:16;11.60;;;8.00;;
24439;SDS011;12618;54.386;18.394;2023-01-13T09:20:48;9.30;;;7.20;;
24439;SDS011;12618;54.386;18.394;2023-01-13T09:23:21;11.10;;;7.10;;
24439;SDS011;12618;54.386;18.394;2023-01-13T09:25:53;10.80;;;8.40;;
24439;SDS011;12618;54.386;18.394;2023-01-13T09:28:24;10.00;;;7.10;;
24439;SDS011;12618;54.386;18.394;2023-01-13T09:30:59;7.70;;;6.70;;
24439;SDS011;12618;54.386;18.394;2023-01-13T09:33:33;7.10;;;6.30;;
24439;SDS011;12618;54.386;18.394;2023-01-13T09:36:25;9.00;;;7.30;;
24439;SDS011;12618;54.386;18.394;2023-01-13T09:38:56;8.10;;;7.10;;
24439;SDS011;12618;54.386;18.394;2023-01-13T09:41:30;8.60;;;7.70;;
24439;SDS011;12618;54.386;18.394;2023-01-13T09:44:38;9.30;;;7.10;;
24439;SDS011;12618;54.386;18.394;2023-01-13T09:53:10;7.80;;;6.80;;
24439;SDS011;12618;54.386;18.394;2023-01-13T09:55:48;7.80;;;7.00;;
24439;SDS011;12618;54.386;18.394;2023-01-13T09:58:20;8.40;;;7.40;;
24439;SDS011;12618;54.386;18.394;2023-01-13T10:00:58;8.40;;;7.30;;
24439;SDS011;12618;54.386;18.394;2023-01-13T10:03:42;8.50;;;6.70;;
24439;SDS011;12618;54.386;18.394;2023-01-13T10:09:01;8.00;;;6.70;;
24439;SDS011;12618;54.386;18.394;2023-01-13T10:11:35;9.10;;;7.10;;
24439;SDS011;12618;54.386;18.394;2023-01-13T10:17:32;6.60;;;5.90;;
24439;SDS011;12618;54.386;18.394;2023-01-13T10:26:27;7.40;;;5.20;;
24439;SDS011;12618;54.386;18.394;2023-01-13T10:29:17;7.60;;;5.10;;
24439;SDS011;12618;54.386;18.394;2023-01-13T10:31:54;7.70;;;4.70;;
24439;SDS011;12618;54.386;18.394;2023-01-13T10:34:29;5.00;;;4.00;;
24439;SDS011;12618;54.386;18.394;2023-01-13T10:37:03;4.90;;;3.90;;
24439;SDS011;12618;54.386;18.394;2023-01-13T10:39:41;5.00;;;3.80;;
24439;SDS011;12618;54.386;18.394;2023-01-13T10:42:16;5.10;;;3.30;;
24439;SDS011;12618;54.386;18.394;2023-01-13T10:45:16;3.70;;;2.80;;
24439;SDS011;12618;54.386;18.394;2023-01-13T10:48:04;4.60;;;2.70;;
24439;SDS011;12618;54.386;18.394;2023-01-13T10:50:43;3.30;;;2.40;;
24439;SDS011;12618;54.386;18.394;2023-01-13T10:53:22;3.70;;;2.40;;
24439;SDS011;12618;54.386;18.394;2023-01-13T10:56:00;3.30;;;2.60;;
24439;SDS011;12618;54.386;18.394;2023-01-13T10:58:34;2.70;;;2.40;;
24439;SDS011;12618;54.386;18.394;2023-01-13T11:01:09;3.30;;;2.30;;
24439;SDS011;12618;54.386;18.394;2023-01-13T11:03:52;2.40;;;2.20;;
24439;SDS011;12618;54.386;18.394;2023-01-13T11:06:28;2.90;;;2.40;;
24439;SDS011;12618;54.386;18.394;2023-01-13T11:09:01;5.70;;;2.50;;
24439;SDS011;12618;54.386;18.394;2023-01-13T11:11:41;3.80;;;2.70;;
24439;SDS011;12618;54.386;18.394;2023-01-13T11:14:36;3.60;;;3.10;;
24439;SDS011;12618;54.386;18.394;2023-01-13T11:20:21;3.90;;;3.20;;
24439;SDS011;12618;54.386;18.394;2023-01-13T11:24:04;4.30;;;3.10;;
24439;SDS011;12618;54.386;18.394;2023-01-13T11:26:20;4.70;;;3.30;;
24439;SDS011;12618;54.386;18.394;2023-01-13T11:29:02;4.10;;;2.80;;
24439;SDS011;12618;54.386;18.394;2023-01-13T11:31:46;4.70;;;3.30;;
24439;SDS011;12618;54.386;18.394;2023-01-13T11:37:06;6.80;;;3.70;;
24439;SDS011;12618;54.386;18.394;2023-01-13T11:39:51;10.10;;;6.70;;
24439;SDS011;12618;54.386;18.394;2023-01-13T11:42:42;12.40;;;7.80;;
24439;SDS011;12618;54.386;18.394;2023-01-13T11:45:40;12.20;;;7.40;;
24439;SDS011;12618;54.386;18.394;2023-01-13T11:48:20;8.30;;;6.50;;
24439;SDS011;12618;54.386;18.394;2023-01-13T11:59:36;7.20;;;5.70;;
24439;SDS011;12618;54.386;18.394;2023-01-13T12:08:11;6.10;;;4.00;;
24439;SDS011;12618;54.386;18.394;2023-01-13T12:11:09;4.00;;;3.30;;
24439;SDS011;12618;54.386;18.394;2023-01-13T12:16:46;5.80;;;4.20;;
24439;SDS011;12618;54.386;18.394;2023-01-13T12:19:27;10.00;;;7.40;;
24439;SDS011;12618;54.386;18.394;2023-01-13T12:24:59;7.70;;;5.60;;
24439;SDS011;12618;54.386;18.394;2023-01-13T12:27:58;7.10;;;5.60;;
24439;SDS011;12618;54.386;18.394;2023-01-13T12:30:56;7.40;;;4.60;;
24439;SDS011;12618;54.386;18.394;2023-01-13T12:36:51;8.10;;;5.90;;
24439;SDS011;12618;54.386;18.394;2023-01-13T12:51:29;8.30;;;4.30;;
24439;SDS011;12618;54.386;18.394;2023-01-13T12:54:27;5.00;;;3.90;;
24439;SDS011;12618;54.386;18.394;2023-01-13T12:57:26;4.30;;;3.10;;
24439;SDS011;12618;54.386;18.394;2023-01-13T13:02:40;6.00;;;4.30;;
24439;SDS011;12618;54.386;18.394;2023-01-13T13:11:34;7.20;;;4.60;;
24439;SDS011;12618;54.386;18.394;2023-01-13T13:20:10;8.40;;;4.90;;
24439;SDS011;12618;54.386;18.394;2023-01-13T13:34:32;6.90;;;4.90;;
24439;SDS011;12618;54.386;18.394;2023-01-13T13:40:06;10.00;;;6.60;;
24439;SDS011;12618;54.386;18.394;2023-01-13T13:43:17;12.80;;;8.00;;
24439;SDS011;12618;54.386;18.394;2023-01-13T13:46:20;10.20;;;6.60;;
24439;SDS011;12618;54.386;18.394;2023-01-13T13:49:21;9.60;;;5.50;;
24439;SDS011;12618;54.386;18.394;2023-01-13T13:54:49;14.10;;;8.70;;
24439;SDS011;12618;54.386;18.394;2023-01-13T13:57:31;21.60;;;12.20;;
24439;SDS011;12618;54.386;18.394;2023-01-13T14:00:26;11.90;;;7.20;;
24439;SDS011;12618;54.386;18.394;2023-01-13T14:03:18;14.50;;;9.00;;
24439;SDS011;12618;54.386;18.394;2023-01-13T14:06:03;9.90;;;7.10;;
24439;SDS011;12618;54.386;18.394;2023-01-13T14:08:38;12.00;;;8.70;;
24439;SDS011;12618;54.386;18.394;2023-01-13T14:11:24;8.40;;;4.60;;
24439;SDS011;12618;54.386;18.394;2023-01-13T14:14:05;11.50;;;7.10;;
24439;SDS011;12618;54.386;18.394;2023-01-13T14:16:44;10.50;;;6.40;;
24439;SDS011;12618;54.386;18.394;2023-01-13T14:19:21;9.50;;;4.80;;
24439;SDS011;12618;54.386;18.394;2023-01-13T14:21:59;7.80;;;3.60;;
24439;SDS011;12618;54.386;18.394;2023-01-13T14:24:32;12.90;;;4.40;;
24439;SDS011;12618;54.386;18.394;2023-01-13T14:27:13;11.90;;;5.40;;
24439;SDS011;12618;54.386;18.394;2023-01-13T14:29:46;8.00;;;4.80;;
24439;SDS011;12618;54.386;18.394;2023-01-13T14:32:20;12.20;;;6.10;;
24439;SDS011;12618;54.386;18.394;2023-01-13T14:34:56;8.10;;;4.50;;
24439;SDS011;12618;54.386;18.394;2023-01-13T14:37:36;9.90;;;4.70;;
24439;SDS011;12618;54.386;18.394;2023-01-13T14:43:10;13.50;;;8.00;;
24439;SDS011;12618;54.386;18.394;2023-01-13T14:45:55;15.40;;;8.40;;
24439;SDS011;12618;54.386;18.394;2023-01-13T14:48:30;13.20;;;8.10;;
24439;SDS011;12618;54.386;18.394;2023-01-13T14:51:07;12.80;;;7.70;;
24439;SDS011;12618;54.386;18.394;2023-01-13T14:53:43;12.90;;;6.80;;
24439;SDS011;12618;54.386;18.394;2023-01-13T14:56:38;13.20;;;7.60;;
24439;SDS011;12618;54.386;18.394;2023-01-13T15:13:31;17.00;;;9.80;;
24439;SDS011;12618;54.386;18.394;2023-01-13T15:16:20;15.30;;;10.00;;
24439;SDS011;12618;54.386;18.394;2023-01-13T15:18:56;16.80;;;9.60;;
24439;SDS011;12618;54.386;18.394;2023-01-13T15:21:29;19.80;;;12.10;;
24439;SDS011;12618;54.386;18.394;2023-01-13T15:24:00;22.40;;;14.70;;
24439;SDS011;12618;54.386;18.394;2023-01-13T15:26:32;22.30;;;13.30;;
24439;SDS011;12618;54.386;18.394;2023-01-13T15:29:05;18.40;;;11.80;;
24439;SDS011;12618;54.386;18.394;2023-01-13T15:31:44;18.40;;;10.50;;
24439;SDS011;12618;54.386;18.394;2023-01-13T15:34:16;15.80;;;9.90;;
24439;SDS011;12618;54.386;18.394;2023-01-13T15:36:47;13.40;;;7.90;;
24439;SDS011;12618;54.386;18.394;2023-01-13T15:39:19;13.50;;;8.10;;
24439;SDS011;12618;54.386;18.394;2023-01-13T15:41:50;14.60;;;9.20;;
24439;SDS011;12618;54.386;18.394;2023-01-13T15:44:41;18.10;;;12.00;;
24439;SDS011;12618;54.386;18.394;2023-01-13T15:47:31;19.30;;;12.20;;
24439;SDS011;12618;54.386;18.394;2023-01-13T15:50:02;18.00;;;10.50;;
24439;SDS011;12618;54.386;18.394;2023-01-13T15:52:34;16.70;;;10.80;;
24439;SDS011;12618;54.386;18.394;2023-01-13T15:55:06;17.60;;;11.60;;
24439;SDS011;12618;54.386;18.394;2023-01-13T15:57:50;19.70;;;12.00;;
24439;SDS011;12618;54.386;18.394;2023-01-13T16:00:23;17.10;;;10.30;;
24439;SDS011;12618;54.386;18.394;2023-01-13T16:02:56;11.30;;;7.40;;
24439;SDS011;12618;54.386;18.394;2023-01-13T16:05:27;10.20;;;6.80;;
24439;SDS011;12618;54.386;18.394;2023-01-13T16:07:59;9.90;;;6.50;;
24439;SDS011;12618;54.386;18.394;2023-01-13T16:10:31;9.10;;;5.50;;
24439;SDS011;12618;54.386;18.394;2023-01-13T16:13:03;13.00;;;6.90;;
24439;SDS011;12618;54.386;18.394;2023-01-13T16:15:34;11.10;;;6.70;;
24439;SDS011;12618;54.386;18.394;2023-01-13T16:18:09;14.10;;;8.80;;
24439;SDS011;12618;54.386;18.394;2023-01-13T16:20:50;12.70;;;8.90;;
24439;SDS011;12618;54.386;18.394;2023-01-13T16:23:25;15.30;;;10.10;;
24439;SDS011;12618;54.386;18.394;2023-01-13T16:25:57;17.40;;;10.90;;
24439;SDS011;12618;54.386;18.394;2023-01-13T16:28:28;17.40;;;11.40;;
24439;SDS011;12618;54.386;18.394;2023-01-13T16:31:03;14.80;;;9.50;;
24439;SDS011;12618;54.386;18.394;2023-01-13T16:34:04;15.40;;;10.30;;
24439;SDS011;12618;54.386;18.394;2023-01-13T16:36:36;16.30;;;10.90;;
24439;SDS011;12618;54.386;18.394;2023-01-13T16:39:17;20.90;;;12.40;;
24439;SDS011;12618;54.386;18.394;2023-01-13T16:41:51;19.70;;;12.50;;
24439;SDS011;12618;54.386;18.394;2023-01-13T16:44:23;21.60;;;13.10;;
24439;SDS011;12618;54.386;18.394;2023-01-13T16:46:55;21.80;;;12.90;;
24439;SDS011;12618;54.386;18.394;2023-01-13T16:49:26;22.50;;;11.70;;
24439;SDS011;12618;54.386;18.394;2023-01-13T16:51:58;20.20;;;11.20;;
24439;SDS011;12618;54.386;18.394;2023-01-13T16:54:30;40.20;;;21.10;;
24439;SDS011;12618;54.386;18.394;2023-01-13T16:57:01;28.30;;;15.50;;
24439;SDS011;12618;54.386;18.394;2023-01-13T16:59:33;23.40;;;14.10;;
24439;SDS011;12618;54.386;18.394;2023-01-13T17:02:10;23.40;;;15.30;;
24439;SDS011;12618;54.386;18.394;2023-01-13T17:04:45;18.80;;;11.70;;
24439;SDS011;12618;54.386;18.394;2023-01-13T17:07:17;23.60;;;14.30;;
24439;SDS011;12618;54.386;18.394;2023-01-13T17:09:49;20.20;;;14.10;;
24439;SDS011;12618;54.386;18.394;2023-01-13T17:12:20;20.70;;;11.80;;
24439;SDS011;12618;54.386;18.394;2023-01-13T17:14:52;20.00;;;11.00;;
24439;SDS011;12618;54.386;18.394;2023-01-13T17:17:24;16.80;;;9.80;;
24439;SDS011;12618;54.386;18.394;2023-01-13T17:19:57;16.20;;;10.20;;
24439;SDS011;12618;54.386;18.394;2023-01-13T17:22:30;15.20;;;10.30;;
24439;SDS011;12618;54.386;18.394;2023-01-13T17:25:03;18.80;;;11.10;;
24439;SDS011;12618;54.386;18.394;2023-01-13T17:27:35;17.60;;;10.90;;
24439;SDS011;12618;54.386;18.394;2023-01-13T17:30:08;20.90;;;13.40;;
24439;SDS011;12618;54.386;18.394;2023-01-13T17:35:13;16.90;;;10.30;;
24439;SDS011;12618;54.386;18.394;2023-01-13T17:37:49;24.80;;;16.60;;
24439;SDS011;12618;54.386;18.394;2023-01-13T17:42:54;14.70;;;7.60;;
24439;SDS011;12618;54.386;18.394;2023-01-13T17:45:27;13.60;;;8.20;;
24439;SDS011;12618;54.386;18.394;2023-01-13T17:47:59;19.10;;;10.50;;
24439;SDS011;12618;54.386;18.394;2023-01-13T17:50:33;16.00;;;9.00;;
24439;SDS011;12618;54.386;18.394;2023-01-13T17:53:05;11.60;;;7.20;;
24439;SDS011;12618;54.386;18.394;2023-01-13T17:55:37;12.40;;;6.70;;
24439;SDS011;12618;54.386;18.394;2023-01-13T17:58:09;10.90;;;5.80;;
24439;SDS011;12618;54.386;18.394;2023-01-13T18:00:41;11.30;;;5.70;;
24439;SDS011;12618;54.386;18.394;2023-01-13T18:03:12;12.80;;;6.90;;